sensor_id;sensor_type;location;lat;lon;timestamp;P1;durP1;ratioP1;P2;durP2;ratioP2
78824;SDS011;68176;45.554;10.220;2024-01-11T00:01:35;11.57;;;7.18;;
78824;SDS011;68176;45.554;10.220;2024-01-11T00:04:05;13.57;;;7.75;;
78824;SDS011;68176;45.554;10.220;2024-01-11T00:06:39;10.43;;;7.70;;
78824;SDS011;68176;45.554;10.220;2024-01-11T00:09:06;4.90;;;3.80;;
78824;SDS011;68176;45.554;10.220;2024-01-11T00:11:35;10.45;;;7.22;;
78824;SDS011;68176;45.554;10.220;2024-01-11T00:14:05;10.63;;;7.60;;
78824;SDS011;68176;45.554;10.220;2024-01-11T00:16:35;10.57;;;7.05;;
78824;SDS011;68176;45.554;10.220;2024-01-11T00:19:05;13.63;;;7.35;;
78824;SDS011;68176;45.554;10.220;2024-01-11T00:21:35;11.65;;;6.97;;
78824;SDS011;68176;45.554;10.220;2024-01-11T00:24:05;10.60;;;7.03;;
78824;SDS011;68176;45.554;10.220;2024-01-11T00:29:05;10.88;;;6.57;;
78824;SDS011;68176;45.554;10.220;2024-01-11T00:34:05;11.55;;;7.32;;
78824;SDS011;68176;45.554;10.220;2024-01-11T00:36:35;13.18;;;8.18;;
78824;SDS011;68176;45.554;10.220;2024-01-11T00:39:05;10.13;;;7.38;;
78824;SDS011;68176;45.554;10.220;2024-01-11T00:41:35;9.13;;;6.50;;
78824;SDS011;68176;45.554;10.220;2024-01-11T00:44:05;9.15;;;7.15;;
78824;SDS011;68176;45.554;10.220;2024-01-11T00:46:35;9.98;;;6.25;;
78824;SDS011;68176;45.554;10.220;2024-01-11T00:49:05;9.30;;;5.63;;
78824;SDS011;68176;45.554;10.220;2024-01-11T00:51:35;8.70;;;5.68;;
78824;SDS011;68176;45.554;10.220;2024-01-11T00:56:35;11.55;;;7.55;;
78824;SDS011;68176;45.554;10.220;2024-01-11T00:59:05;10.00;;;6.05;;
78824;SDS011;68176;45.554;10.220;2024-01-11T01:01:35;10.93;;;7.32;;
78824;SDS011;68176;45.554;10.220;2024-01-11T01:04:05;7.90;;;5.22;;
78824;SDS011;68176;45.554;10.220;2024-01-11T01:06:35;8.93;;;6.00;;
78824;SDS011;68176;45.554;10.220;2024-01-11T01:09:05;9.40;;;6.45;;
78824;SDS011;68176;45.554;10.220;2024-01-11T01:11:35;10.00;;;6.22;;
78824;SDS011;68176;45.554;10.220;2024-01-11T01:14:05;10.02;;;6.85;;
78824;SDS011;68176;45.554;10.220;2024-01-11T01:16:35;9.30;;;6.18;;
78824;SDS011;68176;45.554;10.220;2024-01-11T01:21:35;9.25;;;5.45;;
78824;SDS011;68176;45.554;10.220;2024-01-11T01:24:05;12.18;;;6.40;;
78824;SDS011;68176;45.554;10.220;2024-01-11T01:26:35;10.25;;;6.22;;
78824;SDS011;68176;45.554;10.220;2024-01-11T01:29:05;8.70;;;6.07;;
78824;SDS011;68176;45.554;10.220;2024-01-11T01:34:06;8.73;;;6.55;;
78824;SDS011;68176;45.554;10.220;2024-01-11T01:36:35;7.85;;;5.63;;
78824;SDS011;68176;45.554;10.220;2024-01-11T01:39:05;8.70;;;6.57;;
78824;SDS011;68176;45.554;10.220;2024-01-11T01:44:05;10.63;;;6.32;;
78824;SDS011;68176;45.554;10.220;2024-01-11T01:46:35;12.77;;;6.90;;
78824;SDS011;68176;45.554;10.220;2024-01-11T01:49:05;9.60;;;5.97;;
78824;SDS011;68176;45.554;10.220;2024-01-11T01:51:35;7.63;;;5.45;;
78824;SDS011;68176;45.554;10.220;2024-01-11T01:56:35;12.60;;;6.90;;
78824;SDS011;68176;45.554;10.220;2024-01-11T02:01:35;8.70;;;6.38;;
78824;SDS011;68176;45.554;10.220;2024-01-11T02:04:05;9.07;;;5.00;;
78824;SDS011;68176;45.554;10.220;2024-01-11T02:06:35;7.32;;;4.93;;
78824;SDS011;68176;45.554;10.220;2024-01-11T02:11:35;10.70;;;7.15;;
78824;SDS011;68176;45.554;10.220;2024-01-11T02:14:05;8.68;;;5.55;;
78824;SDS011;68176;45.554;10.220;2024-01-11T02:16:36;9.07;;;5.68;;
78824;SDS011;68176;45.554;10.220;2024-01-11T02:19:05;7.63;;;6.35;;
78824;SDS011;68176;45.554;10.220;2024-01-11T02:21:36;7.80;;;5.07;;
78824;SDS011;68176;45.554;10.220;2024-01-11T02:24:06;9.15;;;5.10;;
78824;SDS011;68176;45.554;10.220;2024-01-11T02:26:35;10.10;;;6.07;;
78824;SDS011;68176;45.554;10.220;2024-01-11T02:29:05;9.25;;;6.03;;
78824;SDS011;68176;45.554;10.220;2024-01-11T02:31:35;7.63;;;5.25;;
78824;SDS011;68176;45.554;10.220;2024-01-11T02:34:06;7.07;;;5.30;;
78824;SDS011;68176;45.554;10.220;2024-01-11T02:36:35;8.20;;;5.45;;
78824;SDS011;68176;45.554;10.220;2024-01-11T02:39:05;8.18;;;5.28;;
78824;SDS011;68176;45.554;10.220;2024-01-11T02:41:36;9.93;;;5.50;;
78824;SDS011;68176;45.554;10.220;2024-01-11T02:44:06;9.23;;;6.30;;
78824;SDS011;68176;45.554;10.220;2024-01-11T02:46:36;7.43;;;4.97;;
78824;SDS011;68176;45.554;10.220;2024-01-11T02:51:36;11.10;;;5.78;;
78824;SDS011;68176;45.554;10.220;2024-01-11T02:54:06;7.63;;;5.63;;
78824;SDS011;68176;45.554;10.220;2024-01-11T02:59:06;8.45;;;4.65;;
78824;SDS011;68176;45.554;10.220;2024-01-11T03:01:36;7.03;;;5.18;;
78824;SDS011;68176;45.554;10.220;2024-01-11T03:06:36;7.65;;;5.65;;
78824;SDS011;68176;45.554;10.220;2024-01-11T03:09:05;8.68;;;5.78;;
78824;SDS011;68176;45.554;10.220;2024-01-11T03:11:36;7.47;;;5.65;;
78824;SDS011;68176;45.554;10.220;2024-01-11T03:14:06;7.55;;;5.38;;
78824;SDS011;68176;45.554;10.220;2024-01-11T03:19:06;9.20;;;5.90;;
78824;SDS011;68176;45.554;10.220;2024-01-11T03:21:40;9.63;;;5.85;;
78824;SDS011;68176;45.554;10.220;2024-01-11T03:24:06;7.13;;;5.17;;
78824;SDS011;68176;45.554;10.220;2024-01-11T03:26:36;7.75;;;4.63;;
78824;SDS011;68176;45.554;10.220;2024-01-11T03:29:06;8.23;;;5.15;;
78824;SDS011;68176;45.554;10.220;2024-01-11T03:31:36;8.82;;;5.82;;
78824;SDS011;68176;45.554;10.220;2024-01-11T03:34:06;9.40;;;5.22;;
78824;SDS011;68176;45.554;10.220;2024-01-11T03:36:36;8.95;;;5.75;;
78824;SDS011;68176;45.554;10.220;2024-01-11T03:39:06;10.15;;;6.40;;
78824;SDS011;68176;45.554;10.220;2024-01-11T03:41:36;9.30;;;5.78;;
78824;SDS011;68176;45.554;10.220;2024-01-11T03:44:06;8.73;;;6.15;;
78824;SDS011;68176;45.554;10.220;2024-01-11T03:46:36;9.48;;;5.75;;
78824;SDS011;68176;45.554;10.220;2024-01-11T03:51:36;7.55;;;5.07;;
78824;SDS011;68176;45.554;10.220;2024-01-11T03:54:06;8.30;;;5.38;;
78824;SDS011;68176;45.554;10.220;2024-01-11T03:56:39;9.88;;;5.78;;
78824;SDS011;68176;45.554;10.220;2024-01-11T03:59:06;6.95;;;5.53;;
78824;SDS011;68176;45.554;10.220;2024-01-11T04:01:40;8.05;;;5.38;;
78824;SDS011;68176;45.554;10.220;2024-01-11T04:04:06;8.80;;;4.78;;
78824;SDS011;68176;45.554;10.220;2024-01-11T04:06:36;6.82;;;5.15;;
78824;SDS011;68176;45.554;10.220;2024-01-11T04:09:06;7.32;;;4.85;;
78824;SDS011;68176;45.554;10.220;2024-01-11T04:14:06;9.15;;;5.43;;
78824;SDS011;68176;45.554;10.220;2024-01-11T04:16:39;7.32;;;5.07;;
78824;SDS011;68176;45.554;10.220;2024-01-11T04:19:06;7.27;;;4.83;;
78824;SDS011;68176;45.554;10.220;2024-01-11T04:24:06;7.10;;;5.47;;
78824;SDS011;68176;45.554;10.220;2024-01-11T04:29:06;8.25;;;5.70;;
78824;SDS011;68176;45.554;10.220;2024-01-11T04:31:36;8.23;;;5.13;;
78824;SDS011;68176;45.554;10.220;2024-01-11T04:34:06;8.68;;;5.45;;
78824;SDS011;68176;45.554;10.220;2024-01-11T04:36:39;8.65;;;5.85;;
78824;SDS011;68176;45.554;10.220;2024-01-11T04:39:06;7.70;;;4.80;;
78824;SDS011;68176;45.554;10.220;2024-01-11T04:41:36;8.73;;;5.30;;
78824;SDS011;68176;45.554;10.220;2024-01-11T04:44:06;7.30;;;5.18;;
78824;SDS011;68176;45.554;10.220;2024-01-11T04:46:36;10.02;;;6.45;;
78824;SDS011;68176;45.554;10.220;2024-01-11T04:49:06;7.82;;;5.30;;
78824;SDS011;68176;45.554;10.220;2024-01-11T04:54:06;9.57;;;4.45;;
78824;SDS011;68176;45.554;10.220;2024-01-11T04:59:06;9.35;;;5.65;;
78824;SDS011;68176;45.554;10.220;2024-01-11T05:01:36;8.07;;;4.75;;
78824;SDS011;68176;45.554;10.220;2024-01-11T05:06:36;9.15;;;5.50;;
78824;SDS011;68176;45.554;10.220;2024-01-11T05:09:06;8.32;;;5.53;;
78824;SDS011;68176;45.554;10.220;2024-01-11T05:11:37;8.73;;;4.90;;
78824;SDS011;68176;45.554;10.220;2024-01-11T05:14:06;8.30;;;5.25;;
78824;SDS011;68176;45.554;10.220;2024-01-11T05:16:36;7.70;;;5.60;;
78824;SDS011;68176;45.554;10.220;2024-01-11T05:21:36;10.40;;;7.97;;
78824;SDS011;68176;45.554;10.220;2024-01-11T05:24:06;8.93;;;5.47;;
78824;SDS011;68176;45.554;10.220;2024-01-11T05:26:36;7.97;;;5.45;;
78824;SDS011;68176;45.554;10.220;2024-01-11T05:31:36;7.15;;;4.85;;
78824;SDS011;68176;45.554;10.220;2024-01-11T05:36:36;9.35;;;5.45;;
78824;SDS011;68176;45.554;10.220;2024-01-11T05:39:06;7.88;;;5.25;;
78824;SDS011;68176;45.554;10.220;2024-01-11T05:41:36;7.72;;;4.82;;
78824;SDS011;68176;45.554;10.220;2024-01-11T05:44:06;7.97;;;5.63;;
78824;SDS011;68176;45.554;10.220;2024-01-11T05:49:07;11.57;;;6.05;;
78824;SDS011;68176;45.554;10.220;2024-01-11T05:51:36;7.53;;;4.68;;
78824;SDS011;68176;45.554;10.220;2024-01-11T05:56:36;7.93;;;4.68;;
78824;SDS011;68176;45.554;10.220;2024-01-11T05:59:06;8.32;;;5.30;;
78824;SDS011;68176;45.554;10.220;2024-01-11T06:04:07;6.68;;;4.68;;
78824;SDS011;68176;45.554;10.220;2024-01-11T06:06:36;8.40;;;5.18;;
78824;SDS011;68176;45.554;10.220;2024-01-11T06:09:06;8.55;;;5.03;;
78824;SDS011;68176;45.554;10.220;2024-01-11T06:11:37;8.70;;;5.78;;
78824;SDS011;68176;45.554;10.220;2024-01-11T06:14:07;8.00;;;5.35;;
78824;SDS011;68176;45.554;10.220;2024-01-11T06:16:37;7.97;;;5.40;;
78824;SDS011;68176;45.554;10.220;2024-01-11T06:19:06;8.60;;;5.75;;
78824;SDS011;68176;45.554;10.220;2024-01-11T06:21:36;7.40;;;4.90;;
78824;SDS011;68176;45.554;10.220;2024-01-11T06:24:07;6.70;;;4.38;;
78824;SDS011;68176;45.554;10.220;2024-01-11T06:29:07;7.15;;;4.45;;
78824;SDS011;68176;45.554;10.220;2024-01-11T06:34:07;7.95;;;4.97;;
78824;SDS011;68176;45.554;10.220;2024-01-11T06:36:37;6.78;;;5.47;;
78824;SDS011;68176;45.554;10.220;2024-01-11T06:39:07;7.60;;;4.75;;
78824;SDS011;68176;45.554;10.220;2024-01-11T06:41:37;10.00;;;5.28;;
78824;SDS011;68176;45.554;10.220;2024-01-11T06:44:07;9.45;;;6.18;;
78824;SDS011;68176;45.554;10.220;2024-01-11T06:46:37;6.35;;;5.20;;
78824;SDS011;68176;45.554;10.220;2024-01-11T06:49:07;6.97;;;4.65;;
78824;SDS011;68176;45.554;10.220;2024-01-11T06:51:37;6.93;;;5.07;;
78824;SDS011;68176;45.554;10.220;2024-01-11T06:54:07;8.07;;;5.75;;
78824;SDS011;68176;45.554;10.220;2024-01-11T06:56:37;7.18;;;5.00;;
78824;SDS011;68176;45.554;10.220;2024-01-11T06:59:07;7.60;;;5.15;;
78824;SDS011;68176;45.554;10.220;2024-01-11T07:04:07;8.20;;;5.63;;
78824;SDS011;68176;45.554;10.220;2024-01-11T07:06:37;8.10;;;4.93;;
78824;SDS011;68176;45.554;10.220;2024-01-11T07:09:07;7.50;;;4.75;;
78824;SDS011;68176;45.554;10.220;2024-01-11T07:11:37;8.73;;;4.88;;
78824;SDS011;68176;45.554;10.220;2024-01-11T07:14:07;6.88;;;4.47;;
78824;SDS011;68176;45.554;10.220;2024-01-11T07:16:37;7.07;;;4.43;;
78824;SDS011;68176;45.554;10.220;2024-01-11T07:19:07;7.95;;;5.55;;
78824;SDS011;68176;45.554;10.220;2024-01-11T07:24:07;9.20;;;5.40;;
78824;SDS011;68176;45.554;10.220;2024-01-11T07:26:37;7.63;;;5.50;;
78824;SDS011;68176;45.554;10.220;2024-01-11T07:29:07;8.15;;;5.60;;
78824;SDS011;68176;45.554;10.220;2024-01-11T07:31:37;7.47;;;5.05;;
78824;SDS011;68176;45.554;10.220;2024-01-11T07:34:07;8.40;;;4.75;;
78824;SDS011;68176;45.554;10.220;2024-01-11T07:36:38;7.38;;;5.38;;
78824;SDS011;68176;45.554;10.220;2024-01-11T07:39:07;6.93;;;4.63;;
78824;SDS011;68176;45.554;10.220;2024-01-11T07:41:37;7.00;;;4.68;;
78824;SDS011;68176;45.554;10.220;2024-01-11T07:49:07;7.68;;;4.88;;
78824;SDS011;68176;45.554;10.220;2024-01-11T07:54:07;7.70;;;4.97;;
78824;SDS011;68176;45.554;10.220;2024-01-11T07:56:37;8.10;;;5.68;;
78824;SDS011;68176;45.554;10.220;2024-01-11T07:59:07;8.32;;;5.22;;
78824;SDS011;68176;45.554;10.220;2024-01-11T08:01:37;7.10;;;5.18;;
78824;SDS011;68176;45.554;10.220;2024-01-11T08:04:07;6.65;;;4.57;;
78824;SDS011;68176;45.554;10.220;2024-01-11T08:06:37;8.02;;;6.85;;
78824;SDS011;68176;45.554;10.220;2024-01-11T08:09:07;7.85;;;5.03;;
78824;SDS011;68176;45.554;10.220;2024-01-11T08:11:37;6.10;;;4.07;;
78824;SDS011;68176;45.554;10.220;2024-01-11T08:16:37;7.72;;;4.50;;
78824;SDS011;68176;45.554;10.220;2024-01-11T08:19:07;7.72;;;5.57;;
78824;SDS011;68176;45.554;10.220;2024-01-11T08:21:37;5.75;;;4.47;;
78824;SDS011;68176;45.554;10.220;2024-01-11T08:24:07;8.10;;;5.70;;
78824;SDS011;68176;45.554;10.220;2024-01-11T08:26:37;8.27;;;5.10;;
78824;SDS011;68176;45.554;10.220;2024-01-11T08:29:07;9.52;;;5.60;;
78824;SDS011;68176;45.554;10.220;2024-01-11T08:31:37;7.38;;;4.68;;
78824;SDS011;68176;45.554;10.220;2024-01-11T08:34:07;8.15;;;5.65;;
78824;SDS011;68176;45.554;10.220;2024-01-11T08:36:37;7.25;;;5.22;;
78824;SDS011;68176;45.554;10.220;2024-01-11T08:39:07;8.07;;;4.90;;
78824;SDS011;68176;45.554;10.220;2024-01-11T08:41:37;7.20;;;5.00;;
78824;SDS011;68176;45.554;10.220;2024-01-11T08:44:07;8.05;;;4.78;;
78824;SDS011;68176;45.554;10.220;2024-01-11T08:46:37;7.32;;;4.68;;
78824;SDS011;68176;45.554;10.220;2024-01-11T08:49:07;6.15;;;5.05;;
78824;SDS011;68176;45.554;10.220;2024-01-11T08:51:37;8.70;;;5.25;;
78824;SDS011;68176;45.554;10.220;2024-01-11T08:54:07;7.68;;;5.03;;
78824;SDS011;68176;45.554;10.220;2024-01-11T08:56:37;5.97;;;4.65;;
78824;SDS011;68176;45.554;10.220;2024-01-11T08:59:07;7.80;;;4.85;;
78824;SDS011;68176;45.554;10.220;2024-01-11T09:01:38;8.60;;;5.70;;
78824;SDS011;68176;45.554;10.220;2024-01-11T09:04:07;7.57;;;4.88;;
78824;SDS011;68176;45.554;10.220;2024-01-11T09:06:37;6.03;;;4.15;;
78824;SDS011;68176;45.554;10.220;2024-01-11T09:09:07;7.15;;;4.63;;
78824;SDS011;68176;45.554;10.220;2024-01-11T09:11:37;7.35;;;5.35;;
78824;SDS011;68176;45.554;10.220;2024-01-11T09:14:07;9.60;;;5.07;;
78824;SDS011;68176;45.554;10.220;2024-01-11T09:16:37;6.15;;;4.47;;
78824;SDS011;68176;45.554;10.220;2024-01-11T09:19:07;7.07;;;5.13;;
78824;SDS011;68176;45.554;10.220;2024-01-11T09:24:07;6.82;;;4.60;;
78824;SDS011;68176;45.554;10.220;2024-01-11T09:26:38;7.43;;;4.63;;
78824;SDS011;68176;45.554;10.220;2024-01-11T09:29:07;7.28;;;5.13;;
78824;SDS011;68176;45.554;10.220;2024-01-11T09:31:38;7.57;;;4.70;;
78824;SDS011;68176;45.554;10.220;2024-01-11T09:34:08;6.35;;;4.97;;
78824;SDS011;68176;45.554;10.220;2024-01-11T09:36:37;7.38;;;4.93;;
78824;SDS011;68176;45.554;10.220;2024-01-11T09:39:08;7.38;;;4.38;;
78824;SDS011;68176;45.554;10.220;2024-01-11T09:41:37;7.13;;;4.57;;
78824;SDS011;68176;45.554;10.220;2024-01-11T09:44:08;7.00;;;4.18;;
78824;SDS011;68176;45.554;10.220;2024-01-11T09:46:37;7.53;;;4.20;;
78824;SDS011;68176;45.554;10.220;2024-01-11T09:49:07;8.13;;;4.47;;
78824;SDS011;68176;45.554;10.220;2024-01-11T09:51:38;6.38;;;4.05;;
78824;SDS011;68176;45.554;10.220;2024-01-11T09:54:07;7.65;;;4.90;;
78824;SDS011;68176;45.554;10.220;2024-01-11T09:56:38;7.07;;;5.03;;
78824;SDS011;68176;45.554;10.220;2024-01-11T09:59:08;7.90;;;5.25;;
78824;SDS011;68176;45.554;10.220;2024-01-11T10:01:37;7.88;;;4.85;;
78824;SDS011;68176;45.554;10.220;2024-01-11T10:04:08;8.13;;;4.38;;
78824;SDS011;68176;45.554;10.220;2024-01-11T10:06:38;5.47;;;3.55;;
78824;SDS011;68176;45.554;10.220;2024-01-11T10:09:08;7.57;;;4.57;;
78824;SDS011;68176;45.554;10.220;2024-01-11T10:11:38;7.63;;;5.53;;
78824;SDS011;68176;45.554;10.220;2024-01-11T10:14:08;6.00;;;3.75;;
78824;SDS011;68176;45.554;10.220;2024-01-11T10:16:38;7.07;;;4.13;;
78824;SDS011;68176;45.554;10.220;2024-01-11T10:21:38;9.85;;;6.10;;
78824;SDS011;68176;45.554;10.220;2024-01-11T10:24:08;8.93;;;6.07;;
78824;SDS011;68176;45.554;10.220;2024-01-11T10:26:38;10.15;;;5.68;;
78824;SDS011;68176;45.554;10.220;2024-01-11T10:29:08;6.05;;;4.10;;
78824;SDS011;68176;45.554;10.220;2024-01-11T10:31:38;7.70;;;3.67;;
78824;SDS011;68176;45.554;10.220;2024-01-11T10:34:08;7.55;;;5.63;;
78824;SDS011;68176;45.554;10.220;2024-01-11T10:36:38;6.78;;;4.60;;
78824;SDS011;68176;45.554;10.220;2024-01-11T10:39:08;8.27;;;5.65;;
78824;SDS011;68176;45.554;10.220;2024-01-11T10:41:41;7.35;;;5.03;;
78824;SDS011;68176;45.554;10.220;2024-01-11T10:44:20;10.77;;;5.50;;
78824;SDS011;68176;45.554;10.220;2024-01-11T10:46:47;12.40;;;5.63;;
78824;SDS011;68176;45.554;10.220;2024-01-11T10:49:18;7.10;;;3.70;;
78824;SDS011;68176;45.554;10.220;2024-01-11T10:51:45;7.90;;;4.30;;
78824;SDS011;68176;45.554;10.220;2024-01-11T10:54:24;7.20;;;5.22;;
78824;SDS011;68176;45.554;10.220;2024-01-11T10:56:51;4.00;;;3.25;;
78824;SDS011;68176;45.554;10.220;2024-01-11T10:59:18;6.70;;;4.35;;
78824;SDS011;68176;45.554;10.220;2024-01-11T11:01:50;9.30;;;4.10;;
78824;SDS011;68176;45.554;10.220;2024-01-11T11:04:22;9.45;;;4.70;;
78824;SDS011;68176;45.554;10.220;2024-01-11T11:06:49;8.10;;;3.10;;
78824;SDS011;68176;45.554;10.220;2024-01-11T11:09:18;5.32;;;3.55;;
78824;SDS011;68176;45.554;10.220;2024-01-11T11:11:48;7.60;;;4.20;;
78824;SDS011;68176;45.554;10.220;2024-01-11T11:14:18;7.13;;;4.07;;
78824;SDS011;68176;45.554;10.220;2024-01-11T11:16:48;7.72;;;3.92;;
78824;SDS011;68176;45.554;10.220;2024-01-11T11:19:21;7.88;;;4.43;;
78824;SDS011;68176;45.554;10.220;2024-01-11T11:21:48;4.50;;;3.22;;
78824;SDS011;68176;45.554;10.220;2024-01-11T11:24:19;7.72;;;5.47;;
78824;SDS011;68176;45.554;10.220;2024-01-11T11:26:48;5.97;;;4.20;;
78824;SDS011;68176;45.554;10.220;2024-01-11T11:29:18;7.82;;;4.65;;
78824;SDS011;68176;45.554;10.220;2024-01-11T11:31:48;7.50;;;4.85;;
78824;SDS011;68176;45.554;10.220;2024-01-11T11:34:19;6.00;;;3.42;;
78824;SDS011;68176;45.554;10.220;2024-01-11T11:36:48;7.18;;;3.63;;
78824;SDS011;68176;45.554;10.220;2024-01-11T11:39:19;3.00;;;2.70;;
78824;SDS011;68176;45.554;10.220;2024-01-11T11:41:48;5.22;;;3.85;;
78824;SDS011;68176;45.554;10.220;2024-01-11T11:44:18;5.97;;;5.00;;
78824;SDS011;68176;45.554;10.220;2024-01-11T11:46:48;8.48;;;5.15;;
78824;SDS011;68176;45.554;10.220;2024-01-11T11:49:18;5.72;;;3.67;;
78824;SDS011;68176;45.554;10.220;2024-01-11T11:51:48;7.97;;;4.45;;
78824;SDS011;68176;45.554;10.220;2024-01-11T11:54:18;6.35;;;4.43;;
78824;SDS011;68176;45.554;10.220;2024-01-11T11:56:48;7.05;;;4.57;;
78824;SDS011;68176;45.554;10.220;2024-01-11T11:59:18;6.95;;;4.10;;
78824;SDS011;68176;45.554;10.220;2024-01-11T12:01:48;9.90;;;5.40;;
78824;SDS011;68176;45.554;10.220;2024-01-11T12:04:18;7.78;;;4.65;;
78824;SDS011;68176;45.554;10.220;2024-01-11T12:09:18;7.13;;;3.67;;
78824;SDS011;68176;45.554;10.220;2024-01-11T12:11:48;7.50;;;4.78;;
78824;SDS011;68176;45.554;10.220;2024-01-11T12:14:18;6.47;;;4.40;;
78824;SDS011;68176;45.554;10.220;2024-01-11T12:16:55;6.13;;;3.92;;
78824;SDS011;68176;45.554;10.220;2024-01-11T12:19:22;5.30;;;2.90;;
78824;SDS011;68176;45.554;10.220;2024-01-11T12:21:49;5.85;;;4.55;;
78824;SDS011;68176;45.554;10.220;2024-01-11T12:24:18;6.18;;;3.88;;
78824;SDS011;68176;45.554;10.220;2024-01-11T12:26:48;5.85;;;3.83;;
78824;SDS011;68176;45.554;10.220;2024-01-11T12:29:18;5.65;;;3.70;;
78824;SDS011;68176;45.554;10.220;2024-01-11T12:34:18;6.47;;;4.28;;
78824;SDS011;68176;45.554;10.220;2024-01-11T12:36:48;8.68;;;4.22;;
78824;SDS011;68176;45.554;10.220;2024-01-11T12:39:18;9.20;;;3.95;;
78824;SDS011;68176;45.554;10.220;2024-01-11T12:41:49;6.97;;;4.55;;
78824;SDS011;68176;45.554;10.220;2024-01-11T12:44:18;6.32;;;4.18;;
78824;SDS011;68176;45.554;10.220;2024-01-11T12:46:48;5.70;;;3.60;;
78824;SDS011;68176;45.554;10.220;2024-01-11T12:49:18;6.25;;;4.13;;
78824;SDS011;68176;45.554;10.220;2024-01-11T12:56:48;6.47;;;3.85;;
78824;SDS011;68176;45.554;10.220;2024-01-11T12:59:18;8.27;;;5.30;;
78824;SDS011;68176;45.554;10.220;2024-01-11T13:01:48;6.93;;;4.60;;
78824;SDS011;68176;45.554;10.220;2024-01-11T13:06:48;5.70;;;3.58;;
78824;SDS011;68176;45.554;10.220;2024-01-11T13:09:18;5.70;;;3.65;;
78824;SDS011;68176;45.554;10.220;2024-01-11T13:11:48;6.25;;;4.10;;
78824;SDS011;68176;45.554;10.220;2024-01-11T13:14:18;6.68;;;4.28;;
78824;SDS011;68176;45.554;10.220;2024-01-11T13:16:48;5.78;;;3.53;;
78824;SDS011;68176;45.554;10.220;2024-01-11T13:19:18;6.05;;;4.20;;
78824;SDS011;68176;45.554;10.220;2024-01-11T13:21:48;7.05;;;3.97;;
78824;SDS011;68176;45.554;10.220;2024-01-11T13:24:18;5.38;;;3.55;;
78824;SDS011;68176;45.554;10.220;2024-01-11T13:26:48;5.13;;;4.18;;
78824;SDS011;68176;45.554;10.220;2024-01-11T13:29:18;5.65;;;3.60;;
78824;SDS011;68176;45.554;10.220;2024-01-11T13:31:48;5.72;;;4.45;;
78824;SDS011;68176;45.554;10.220;2024-01-11T13:34:18;5.50;;;3.60;;
78824;SDS011;68176;45.554;10.220;2024-01-11T13:36:48;6.25;;;4.05;;
78824;SDS011;68176;45.554;10.220;2024-01-11T13:41:48;5.13;;;3.15;;
78824;SDS011;68176;45.554;10.220;2024-01-11T13:44:18;7.15;;;4.10;;
78824;SDS011;68176;45.554;10.220;2024-01-11T13:46:52;6.10;;;4.15;;
78824;SDS011;68176;45.554;10.220;2024-01-11T13:49:19;3.97;;;3.28;;
78824;SDS011;68176;45.554;10.220;2024-01-11T13:51:49;5.55;;;3.75;;
78824;SDS011;68176;45.554;10.220;2024-01-11T13:54:19;6.28;;;3.58;;
78824;SDS011;68176;45.554;10.220;2024-01-11T13:56:49;6.13;;;4.13;;
78824;SDS011;68176;45.554;10.220;2024-01-11T13:59:18;8.13;;;7.38;;
78824;SDS011;68176;45.554;10.220;2024-01-11T14:01:49;5.03;;;3.97;;
78824;SDS011;68176;45.554;10.220;2024-01-11T14:04:18;5.80;;;3.72;;
78824;SDS011;68176;45.554;10.220;2024-01-11T14:06:49;5.70;;;3.75;;
78824;SDS011;68176;45.554;10.220;2024-01-11T14:09:19;5.18;;;3.33;;
78824;SDS011;68176;45.554;10.220;2024-01-11T14:11:49;7.18;;;3.70;;
78824;SDS011;68176;45.554;10.220;2024-01-11T14:16:49;6.00;;;3.35;;
78824;SDS011;68176;45.554;10.220;2024-01-11T14:19:19;8.25;;;4.50;;
78824;SDS011;68176;45.554;10.220;2024-01-11T14:21:49;6.00;;;4.00;;
78824;SDS011;68176;45.554;10.220;2024-01-11T14:24:19;5.88;;;3.35;;
78824;SDS011;68176;45.554;10.220;2024-01-11T14:26:49;5.55;;;3.20;;
78824;SDS011;68176;45.554;10.220;2024-01-11T14:29:19;4.95;;;3.55;;
78824;SDS011;68176;45.554;10.220;2024-01-11T14:31:49;5.03;;;3.78;;
78824;SDS011;68176;45.554;10.220;2024-01-11T14:34:19;4.07;;;2.97;;
78824;SDS011;68176;45.554;10.220;2024-01-11T14:36:49;5.35;;;3.72;;
78824;SDS011;68176;45.554;10.220;2024-01-11T14:39:19;6.07;;;3.67;;
78824;SDS011;68176;45.554;10.220;2024-01-11T15:05:53;21.57;;;9.23;;
78824;SDS011;68176;45.554;10.220;2024-01-11T15:08:19;11.80;;;7.45;;
78824;SDS011;68176;45.554;10.220;2024-01-11T15:10:48;10.65;;;7.63;;
78824;SDS011;68176;45.554;10.220;2024-01-11T15:13:18;13.88;;;8.23;;
78824;SDS011;68176;45.554;10.220;2024-01-11T15:15:48;11.70;;;8.10;;
78824;SDS011;68176;45.554;10.220;2024-01-11T15:18:18;13.80;;;9.30;;
78824;SDS011;68176;45.554;10.220;2024-01-11T15:23:18;12.52;;;7.30;;
78824;SDS011;68176;45.554;10.220;2024-01-11T15:25:48;10.38;;;6.72;;
78824;SDS011;68176;45.554;10.220;2024-01-11T15:28:18;11.65;;;7.85;;
78824;SDS011;68176;45.554;10.220;2024-01-11T15:30:48;13.80;;;8.63;;
78824;SDS011;68176;45.554;10.220;2024-01-11T15:35:48;12.70;;;7.13;;
78824;SDS011;68176;45.554;10.220;2024-01-11T15:38:18;15.38;;;7.32;;
78824;SDS011;68176;45.554;10.220;2024-01-11T15:43:18;12.52;;;6.97;;
78824;SDS011;68176;45.554;10.220;2024-01-11T15:45:48;10.85;;;8.15;;
78824;SDS011;68176;45.554;10.220;2024-01-11T15:48:18;14.52;;;7.22;;
78824;SDS011;68176;45.554;10.220;2024-01-11T15:50:48;11.18;;;7.13;;
78824;SDS011;68176;45.554;10.220;2024-01-11T15:53:18;11.32;;;7.82;;
78824;SDS011;68176;45.554;10.220;2024-01-11T15:55:48;14.32;;;8.60;;
78824;SDS011;68176;45.554;10.220;2024-01-11T15:58:18;11.45;;;7.13;;
78824;SDS011;68176;45.554;10.220;2024-01-11T16:00:48;11.38;;;7.78;;
78824;SDS011;68176;45.554;10.220;2024-01-11T16:03:18;11.55;;;8.35;;
78824;SDS011;68176;45.554;10.220;2024-01-11T16:05:48;11.80;;;8.43;;
78824;SDS011;68176;45.554;10.220;2024-01-11T16:08:18;11.65;;;7.25;;
78824;SDS011;68176;45.554;10.220;2024-01-11T16:10:48;10.70;;;6.65;;
78824;SDS011;68176;45.554;10.220;2024-01-11T16:13:18;10.32;;;6.80;;
78824;SDS011;68176;45.554;10.220;2024-01-11T16:18:18;11.07;;;5.65;;
78824;SDS011;68176;45.554;10.220;2024-01-11T16:20:48;12.63;;;6.03;;
78824;SDS011;68176;45.554;10.220;2024-01-11T16:23:18;9.95;;;6.90;;
78824;SDS011;68176;45.554;10.220;2024-01-11T16:25:48;11.93;;;6.68;;
78824;SDS011;68176;45.554;10.220;2024-01-11T16:30:48;10.25;;;6.10;;
78824;SDS011;68176;45.554;10.220;2024-01-11T16:33:18;9.60;;;6.60;;
78824;SDS011;68176;45.554;10.220;2024-01-11T16:35:48;9.52;;;6.35;;
78824;SDS011;68176;45.554;10.220;2024-01-11T16:38:18;9.43;;;6.25;;
78824;SDS011;68176;45.554;10.220;2024-01-11T16:40:48;13.70;;;6.18;;
78824;SDS011;68176;45.554;10.220;2024-01-11T16:43:18;10.45;;;6.15;;
78824;SDS011;68176;45.554;10.220;2024-01-11T16:45:48;11.70;;;6.65;;
78824;SDS011;68176;45.554;10.220;2024-01-11T16:48:18;10.38;;;6.95;;
78824;SDS011;68176;45.554;10.220;2024-01-11T16:50:48;10.23;;;6.90;;
78824;SDS011;68176;45.554;10.220;2024-01-11T16:53:18;10.20;;;7.47;;
78824;SDS011;68176;45.554;10.220;2024-01-11T16:55:48;8.95;;;6.63;;
78824;SDS011;68176;45.554;10.220;2024-01-11T16:58:18;9.95;;;6.80;;
78824;SDS011;68176;45.554;10.220;2024-01-11T17:00:48;9.02;;;6.00;;
78824;SDS011;68176;45.554;10.220;2024-01-11T17:03:18;30.75;;;20.73;;
78824;SDS011;68176;45.554;10.220;2024-01-11T17:08:18;24.92;;;14.48;;
78824;SDS011;68176;45.554;10.220;2024-01-11T17:13:18;26.88;;;16.55;;
78824;SDS011;68176;45.554;10.220;2024-01-11T17:15:48;26.10;;;17.10;;